sensor_id;sensor_type;location;lat;lon;timestamp;temperature;humidity
14236;DHT22;7202;50.718;7.072;2022-09-17T00:01:38;11.10;99.90
14236;DHT22;7202;50.718;7.072;2022-09-17T00:04:09;11.10;99.90
14236;DHT22;7202;50.718;7.072;2022-09-17T00:06:37;11.10;99.90
14236;DHT22;7202;50.718;7.072;2022-09-17T00:09:06;11.10;99.90
14236;DHT22;7202;50.718;7.072;2022-09-17T00:11:36;11.10;99.90
14236;DHT22;7202;50.718;7.072;2022-09-17T00:14:06;11.00;99.90
14236;DHT22;7202;50.718;7.072;2022-09-17T00:16:38;11.10;99.90
14236;DHT22;7202;50.718;7.072;2022-09-17T00:19:12;11.10;99.90
14236;DHT22;7202;50.718;7.072;2022-09-17T00:21:41;11.10;99.90
14236;DHT22;7202;50.718;7.072;2022-09-17T00:24:10;11.10;99.90
14236;DHT22;7202;50.718;7.072;2022-09-17T00:26:40;11.10;99.90
14236;DHT22;7202;50.718;7.072;2022-09-17T00:29:09;11.10;99.90
14236;DHT22;7202;50.718;7.072;2022-09-17T00:31:38;11.20;99.90
14236;DHT22;7202;50.718;7.072;2022-09-17T00:34:08;11.20;99.90
14236;DHT22;7202;50.718;7.072;2022-09-17T00:36:39;11.20;99.90
14236;DHT22;7202;50.718;7.072;2022-09-17T00:39:09;11.20;99.90
14236;DHT22;7202;50.718;7.072;2022-09-17T00:41:38;11.20;99.90
14236;DHT22;7202;50.718;7.072;2022-09-17T00:44:42;11.20;99.90
14236;DHT22;7202;50.718;7.072;2022-09-17T00:47:16;11.20;99.90
14236;DHT22;7202;50.718;7.072;2022-09-17T00:49:50;11.20;99.90
14236;DHT22;7202;50.718;7.072;2022-09-17T00:52:22;11.20;99.90
14236;DHT22;7202;50.718;7.072;2022-09-17T00:54:57;11.20;99.90
14236;DHT22;7202;50.718;7.072;2022-09-17T00:57:28;11.20;99.90
14236;DHT22;7202;50.718;7.072;2022-09-17T00:59:58;11.20;99.90
14236;DHT22;7202;50.718;7.072;2022-09-17T01:02:26;11.20;99.90
14236;DHT22;7202;50.718;7.072;2022-09-17T01:04:56;11.20;99.90
14236;DHT22;7202;50.718;7.072;2022-09-17T01:07:45;11.30;99.90
14236;DHT22;7202;50.718;7.072;2022-09-17T01:10:25;11.30;99.90
14236;DHT22;7202;50.718;7.072;2022-09-17T01:13:04;11.30;99.90
14236;DHT22;7202;50.718;7.072;2022-09-17T01:15:40;11.30;99.90
14236;DHT22;7202;50.718;7.072;2022-09-17T01:18:30;11.30;99.90
14236;DHT22;7202;50.718;7.072;2022-09-17T01:21:36;11.40;99.90
14236;DHT22;7202;50.718;7.072;2022-09-17T01:33:40;11.40;99.90
14236;DHT22;7202;50.718;7.072;2022-09-17T01:36:20;11.40;99.90
14236;DHT22;7202;50.718;7.072;2022-09-17T01:38:55;11.40;99.90
14236;DHT22;7202;50.718;7.072;2022-09-17T01:41:33;11.40;99.90
14236;DHT22;7202;50.718;7.072;2022-09-17T01:44:09;11.40;99.90
14236;DHT22;7202;50.718;7.072;2022-09-17T01:46:42;11.40;99.90
14236;DHT22;7202;50.718;7.072;2022-09-17T01:49:14;11.40;99.90
14236;DHT22;7202;50.718;7.072;2022-09-17T01:51:45;11.40;99.90
14236;DHT22;7202;50.718;7.072;2022-09-17T01:54:18;11.40;99.90
14236;DHT22;7202;50.718;7.072;2022-09-17T01:56:51;11.40;99.90
14236;DHT22;7202;50.718;7.072;2022-09-17T01:59:25;11.40;99.90
14236;DHT22;7202;50.718;7.072;2022-09-17T02:01:59;11.40;99.90
14236;DHT22;7202;50.718;7.072;2022-09-17T02:04:36;11.40;99.90
14236;DHT22;7202;50.718;7.072;2022-09-17T02:07:09;11.40;99.90
14236;DHT22;7202;50.718;7.072;2022-09-17T02:09:41;11.40;99.90
14236;DHT22;7202;50.718;7.072;2022-09-17T02:12:18;11.40;99.90
14236;DHT22;7202;50.718;7.072;2022-09-17T02:14:49;11.40;99.90
14236;DHT22;7202;50.718;7.072;2022-09-17T02:17:22;11.50;99.90
14236;DHT22;7202;50.718;7.072;2022-09-17T02:19:54;11.50;99.90
14236;DHT22;7202;50.718;7.072;2022-09-17T02:22:27;11.40;99.90
14236;DHT22;7202;50.718;7.072;2022-09-17T02:25:01;11.40;99.90
14236;DHT22;7202;50.718;7.072;2022-09-17T02:27:38;11.40;99.90
14236;DHT22;7202;50.718;7.072;2022-09-17T02:30:12;11.40;99.90
14236;DHT22;7202;50.718;7.072;2022-09-17T02:32:41;11.40;99.90
14236;DHT22;7202;50.718;7.072;2022-09-17T02:35:12;11.40;99.90
14236;DHT22;7202;50.718;7.072;2022-09-17T02:37:42;11.40;99.90
14236;DHT22;7202;50.718;7.072;2022-09-17T02:40:12;11.40;99.90
14236;DHT22;7202;50.718;7.072;2022-09-17T02:42:58;11.40;99.90
14236;DHT22;7202;50.718;7.072;2022-09-17T02:45:43;11.40;99.90
14236;DHT22;7202;50.718;7.072;2022-09-17T02:48:23;11.40;99.90
14236;DHT22;7202;50.718;7.072;2022-09-17T02:51:08;11.40;99.90
14236;DHT22;7202;50.718;7.072;2022-09-17T02:53:43;11.40;99.90
14236;DHT22;7202;50.718;7.072;2022-09-17T02:56:19;11.40;99.90
14236;DHT22;7202;50.718;7.072;2022-09-17T02:58:56;11.40;99.90
14236;DHT22;7202;50.718;7.072;2022-09-17T03:01:40;11.40;99.90
14236;DHT22;7202;50.718;7.072;2022-09-17T03:04:12;11.40;99.90
14236;DHT22;7202;50.718;7.072;2022-09-17T03:06:44;11.30;99.90
14236;DHT22;7202;50.718;7.072;2022-09-17T03:09:13;11.40;99.90
14236;DHT22;7202;50.718;7.072;2022-09-17T03:11:42;11.30;99.90
14236;DHT22;7202;50.718;7.072;2022-09-17T03:14:10;11.20;99.90
14236;DHT22;7202;50.718;7.072;2022-09-17T03:16:39;11.20;99.90
14236;DHT22;7202;50.718;7.072;2022-09-17T03:19:07;11.30;99.90
14236;DHT22;7202;50.718;7.072;2022-09-17T03:21:36;11.30;99.90
14236;DHT22;7202;50.718;7.072;2022-09-17T03:24:06;11.20;99.90
14236;DHT22;7202;50.718;7.072;2022-09-17T03:26:35;11.30;99.90
14236;DHT22;7202;50.718;7.072;2022-09-17T03:29:04;11.30;99.90
14236;DHT22;7202;50.718;7.072;2022-09-17T03:31:32;11.30;99.90
14236;DHT22;7202;50.718;7.072;2022-09-17T03:34:01;11.30;99.90
14236;DHT22;7202;50.718;7.072;2022-09-17T03:36:29;11.40;99.90
14236;DHT22;7202;50.718;7.072;2022-09-17T03:38:58;11.40;99.90
14236;DHT22;7202;50.718;7.072;2022-09-17T03:41:28;11.40;99.90
14236;DHT22;7202;50.718;7.072;2022-09-17T03:43:57;11.40;99.90
14236;DHT22;7202;50.718;7.072;2022-09-17T03:46:25;11.40;99.90
14236;DHT22;7202;50.718;7.072;2022-09-17T03:48:54;11.40;99.90
14236;DHT22;7202;50.718;7.072;2022-09-17T03:51:22;11.40;99.90
14236;DHT22;7202;50.718;7.072;2022-09-17T03:53:51;11.40;99.90
14236;DHT22;7202;50.718;7.072;2022-09-17T03:56:19;11.40;99.90
14236;DHT22;7202;50.718;7.072;2022-09-17T03:58:49;11.40;99.90
14236;DHT22;7202;50.718;7.072;2022-09-17T04:01:18;11.30;99.90
14236;DHT22;7202;50.718;7.072;2022-09-17T04:03:46;11.40;99.90
14236;DHT22;7202;50.718;7.072;2022-09-17T04:06:15;11.40;99.90
14236;DHT22;7202;50.718;7.072;2022-09-17T04:08:43;11.40;99.90
14236;DHT22;7202;50.718;7.072;2022-09-17T04:11:12;11.40;99.90
14236;DHT22;7202;50.718;7.072;2022-09-17T04:13:41;11.40;99.90
14236;DHT22;7202;50.718;7.072;2022-09-17T04:16:11;11.40;99.90
14236;DHT22;7202;50.718;7.072;2022-09-17T04:18:39;11.40;99.90
14236;DHT22;7202;50.718;7.072;2022-09-17T04:21:08;11.30;99.90
14236;DHT22;7202;50.718;7.072;2022-09-17T04:23:37;11.30;99.90
14236;DHT22;7202;50.718;7.072;2022-09-17T04:26:05;11.40;99.90
14236;DHT22;7202;50.718;7.072;2022-09-17T04:28:34;11.40;99.90
14236;DHT22;7202;50.718;7.072;2022-09-17T04:31:02;11.40;99.90
14236;DHT22;7202;50.718;7.072;2022-09-17T04:33:32;11.40;99.90
14236;DHT22;7202;50.718;7.072;2022-09-17T04:36:01;11.40;99.90
14236;DHT22;7202;50.718;7.072;2022-09-17T04:38:30;11.50;99.90
14236;DHT22;7202;50.718;7.072;2022-09-17T04:40:59;11.50;99.90
14236;DHT22;7202;50.718;7.072;2022-09-17T04:43:28;11.50;99.90
14236;DHT22;7202;50.718;7.072;2022-09-17T04:45:56;11.50;99.90
14236;DHT22;7202;50.718;7.072;2022-09-17T04:48:25;11.40;99.90
14236;DHT22;7202;50.718;7.072;2022-09-17T04:50:55;11.40;99.90
14236;DHT22;7202;50.718;7.072;2022-09-17T04:53:23;11.40;99.90
14236;DHT22;7202;50.718;7.072;2022-09-17T04:55:52;11.40;99.90
14236;DHT22;7202;50.718;7.072;2022-09-17T04:58:20;11.30;99.90
14236;DHT22;7202;50.718;7.072;2022-09-17T05:00:49;11.40;99.90
14236;DHT22;7202;50.718;7.072;2022-09-17T05:03:18;11.40;99.90
14236;DHT22;7202;50.718;7.072;2022-09-17T05:05:46;11.30;99.90
14236;DHT22;7202;50.718;7.072;2022-09-17T05:08:16;11.40;99.90
14236;DHT22;7202;50.718;7.072;2022-09-17T05:10:44;11.30;99.90
14236;DHT22;7202;50.718;7.072;2022-09-17T05:13:13;11.30;99.90
14236;DHT22;7202;50.718;7.072;2022-09-17T05:15:41;11.30;99.90
14236;DHT22;7202;50.718;7.072;2022-09-17T05:18:11;11.30;99.90
14236;DHT22;7202;50.718;7.072;2022-09-17T05:20:39;11.30;99.90
14236;DHT22;7202;50.718;7.072;2022-09-17T05:23:08;11.40;99.90
14236;DHT22;7202;50.718;7.072;2022-09-17T05:25:38;11.40;99.90
14236;DHT22;7202;50.718;7.072;2022-09-17T05:28:06;11.40;99.90
14236;DHT22;7202;50.718;7.072;2022-09-17T05:30:35;11.40;99.90
14236;DHT22;7202;50.718;7.072;2022-09-17T05:33:05;11.40;99.90
14236;DHT22;7202;50.718;7.072;2022-09-17T05:35:34;11.40;99.90
14236;DHT22;7202;50.718;7.072;2022-09-17T05:38:04;11.40;99.90
14236;DHT22;7202;50.718;7.072;2022-09-17T05:40:33;11.40;99.90
14236;DHT22;7202;50.718;7.072;2022-09-17T05:43:06;11.40;99.90
14236;DHT22;7202;50.718;7.072;2022-09-17T05:45:35;11.40;99.90
14236;DHT22;7202;50.718;7.072;2022-09-17T05:48:08;11.50;99.90
14236;DHT22;7202;50.718;7.072;2022-09-17T05:50:37;11.50;99.90
14236;DHT22;7202;50.718;7.072;2022-09-17T05:53:07;11.50;99.90
14236;DHT22;7202;50.718;7.072;2022-09-17T05:55:36;11.50;99.90
14236;DHT22;7202;50.718;7.072;2022-09-17T05:58:10;11.50;99.90
14236;DHT22;7202;50.718;7.072;2022-09-17T06:00:39;11.50;99.90
14236;DHT22;7202;50.718;7.072;2022-09-17T06:03:10;11.50;99.90
14236;DHT22;7202;50.718;7.072;2022-09-17T06:05:39;11.50;99.90
14236;DHT22;7202;50.718;7.072;2022-09-17T06:08:08;11.50;99.90
14236;DHT22;7202;50.718;7.072;2022-09-17T06:10:37;11.50;99.90
14236;DHT22;7202;50.718;7.072;2022-09-17T06:13:06;11.50;99.90
14236;DHT22;7202;50.718;7.072;2022-09-17T06:15:36;11.60;99.90
14236;DHT22;7202;50.718;7.072;2022-09-17T06:18:04;11.60;99.90
14236;DHT22;7202;50.718;7.072;2022-09-17T06:20:33;11.60;99.90
14236;DHT22;7202;50.718;7.072;2022-09-17T06:23:01;11.70;99.90
14236;DHT22;7202;50.718;7.072;2022-09-17T06:25:30;11.70;99.90
14236;DHT22;7202;50.718;7.072;2022-09-17T06:28:01;11.80;99.90
14236;DHT22;7202;50.718;7.072;2022-09-17T06:30:30;11.80;99.90
14236;DHT22;7202;50.718;7.072;2022-09-17T06:33:00;11.90;99.90
14236;DHT22;7202;50.718;7.072;2022-09-17T06:35:29;11.90;99.90
14236;DHT22;7202;50.718;7.072;2022-09-17T06:37:58;12.00;99.90
14236;DHT22;7202;50.718;7.072;2022-09-17T06:40:27;12.00;99.90
14236;DHT22;7202;50.718;7.072;2022-09-17T06:42:56;12.10;99.90
14236;DHT22;7202;50.718;7.072;2022-09-17T06:45:26;12.10;99.90
14236;DHT22;7202;50.718;7.072;2022-09-17T06:47:55;12.20;99.90
14236;DHT22;7202;50.718;7.072;2022-09-17T06:50:25;12.30;99.90
14236;DHT22;7202;50.718;7.072;2022-09-17T06:52:53;12.40;99.90
14236;DHT22;7202;50.718;7.072;2022-09-17T06:55:22;12.40;99.90
14236;DHT22;7202;50.718;7.072;2022-09-17T06:57:51;12.50;99.90
14236;DHT22;7202;50.718;7.072;2022-09-17T07:00:19;12.50;99.90
14236;DHT22;7202;50.718;7.072;2022-09-17T07:02:55;12.50;99.90
14236;DHT22;7202;50.718;7.072;2022-09-17T07:05:26;12.60;99.90
14236;DHT22;7202;50.718;7.072;2022-09-17T07:07:55;12.60;99.90
14236;DHT22;7202;50.718;7.072;2022-09-17T07:10:24;12.70;99.90
14236;DHT22;7202;50.718;7.072;2022-09-17T07:12:53;12.80;99.90
14236;DHT22;7202;50.718;7.072;2022-09-17T07:15:22;12.90;99.90
14236;DHT22;7202;50.718;7.072;2022-09-17T07:17:50;12.90;99.90
14236;DHT22;7202;50.718;7.072;2022-09-17T07:20:19;12.90;99.90
14236;DHT22;7202;50.718;7.072;2022-09-17T07:22:55;12.90;99.90
14236;DHT22;7202;50.718;7.072;2022-09-17T07:25:24;12.80;99.90
14236;DHT22;7202;50.718;7.072;2022-09-17T07:27:53;12.80;99.90
14236;DHT22;7202;50.718;7.072;2022-09-17T07:30:22;12.80;99.90
14236;DHT22;7202;50.718;7.072;2022-09-17T07:32:51;12.80;99.90
14236;DHT22;7202;50.718;7.072;2022-09-17T07:35:19;12.80;99.90
14236;DHT22;7202;50.718;7.072;2022-09-17T07:37:48;12.80;99.90
14236;DHT22;7202;50.718;7.072;2022-09-17T07:40:18;12.80;99.90
14236;DHT22;7202;50.718;7.072;2022-09-17T07:42:46;12.70;99.90
14236;DHT22;7202;50.718;7.072;2022-09-17T07:45:15;12.70;99.90
14236;DHT22;7202;50.718;7.072;2022-09-17T07:47:44;12.70;99.90
14236;DHT22;7202;50.718;7.072;2022-09-17T07:50:12;12.70;99.90
14236;DHT22;7202;50.718;7.072;2022-09-17T07:52:44;12.80;99.90
14236;DHT22;7202;50.718;7.072;2022-09-17T07:55:14;12.80;99.90
14236;DHT22;7202;50.718;7.072;2022-09-17T07:57:50;12.80;99.90
14236;DHT22;7202;50.718;7.072;2022-09-17T08:00:18;12.80;99.90
14236;DHT22;7202;50.718;7.072;2022-09-17T08:02:52;12.80;99.90
14236;DHT22;7202;50.718;7.072;2022-09-17T08:05:21;12.80;99.90
14236;DHT22;7202;50.718;7.072;2022-09-17T08:07:49;12.80;99.90
14236;DHT22;7202;50.718;7.072;2022-09-17T08:10:19;12.80;99.90
14236;DHT22;7202;50.718;7.072;2022-09-17T08:12:54;12.80;99.90
14236;DHT22;7202;50.718;7.072;2022-09-17T08:15:23;12.80;99.90
14236;DHT22;7202;50.718;7.072;2022-09-17T08:17:52;12.90;99.90
14236;DHT22;7202;50.718;7.072;2022-09-17T08:20:20;12.90;99.90
14236;DHT22;7202;50.718;7.072;2022-09-17T08:22:56;12.90;99.90
14236;DHT22;7202;50.718;7.072;2022-09-17T08:25:25;12.90;99.90
14236;DHT22;7202;50.718;7.072;2022-09-17T08:27:55;13.00;99.90
14236;DHT22;7202;50.718;7.072;2022-09-17T08:30:23;13.10;99.90
14236;DHT22;7202;50.718;7.072;2022-09-17T08:32:54;13.10;99.90
14236;DHT22;7202;50.718;7.072;2022-09-17T08:35:23;13.20;99.90
14236;DHT22;7202;50.718;7.072;2022-09-17T08:37:54;13.20;99.90
14236;DHT22;7202;50.718;7.072;2022-09-17T08:40:23;13.30;99.90
14236;DHT22;7202;50.718;7.072;2022-09-17T08:42:58;13.40;99.90
14236;DHT22;7202;50.718;7.072;2022-09-17T08:45:28;13.50;99.90
14236;DHT22;7202;50.718;7.072;2022-09-17T08:48:01;13.60;99.90
14236;DHT22;7202;50.718;7.072;2022-09-17T08:50:31;13.60;99.90
14236;DHT22;7202;50.718;7.072;2022-09-17T08:53:28;13.70;99.90
14236;DHT22;7202;50.718;7.072;2022-09-17T08:56:01;13.80;99.90
14236;DHT22;7202;50.718;7.072;2022-09-17T08:59:02;13.90;99.90
14236;DHT22;7202;50.718;7.072;2022-09-17T09:01:43;13.80;99.90
14236;DHT22;7202;50.718;7.072;2022-09-17T09:04:46;13.80;99.90
14236;DHT22;7202;50.718;7.072;2022-09-17T09:07:20;13.80;99.90
14236;DHT22;7202;50.718;7.072;2022-09-17T09:09:53;13.80;99.90
14236;DHT22;7202;50.718;7.072;2022-09-17T09:12:31;13.80;99.90
14236;DHT22;7202;50.718;7.072;2022-09-17T09:15:05;13.80;99.90
14236;DHT22;7202;50.718;7.072;2022-09-17T09:17:40;13.80;99.90
14236;DHT22;7202;50.718;7.072;2022-09-17T09:20:15;13.90;99.90
14236;DHT22;7202;50.718;7.072;2022-09-17T09:22:46;14.00;99.90
14236;DHT22;7202;50.718;7.072;2022-09-17T09:25:21;14.00;99.90
14236;DHT22;7202;50.718;7.072;2022-09-17T09:28:00;14.10;99.90
14236;DHT22;7202;50.718;7.072;2022-09-17T09:30:38;14.20;99.90
14236;DHT22;7202;50.718;7.072;2022-09-17T09:33:12;14.30;99.90
14236;DHT22;7202;50.718;7.072;2022-09-17T09:35:42;14.40;99.90
14236;DHT22;7202;50.718;7.072;2022-09-17T09:38:19;14.30;99.90
14236;DHT22;7202;50.718;7.072;2022-09-17T09:40:54;14.40;99.90
14236;DHT22;7202;50.718;7.072;2022-09-17T09:43:28;14.40;99.90
14236;DHT22;7202;50.718;7.072;2022-09-17T09:46:40;14.50;99.90
14236;DHT22;7202;50.718;7.072;2022-09-17T09:49:21;14.50;99.90
14236;DHT22;7202;50.718;7.072;2022-09-17T09:52:02;14.60;99.90
14236;DHT22;7202;50.718;7.072;2022-09-17T09:54:44;14.70;99.90
14236;DHT22;7202;50.718;7.072;2022-09-17T09:57:18;14.70;99.90
14236;DHT22;7202;50.718;7.072;2022-09-17T09:59:49;14.80;99.90
14236;DHT22;7202;50.718;7.072;2022-09-17T10:02:19;14.80;99.90
14236;DHT22;7202;50.718;7.072;2022-09-17T10:04:48;14.90;99.90
14236;DHT22;7202;50.718;7.072;2022-09-17T10:07:19;14.90;99.90
14236;DHT22;7202;50.718;7.072;2022-09-17T10:09:48;14.80;99.90
14236;DHT22;7202;50.718;7.072;2022-09-17T10:12:17;14.80;99.90
14236;DHT22;7202;50.718;7.072;2022-09-17T10:14:46;14.70;99.90
14236;DHT22;7202;50.718;7.072;2022-09-17T10:17:21;14.70;99.90
14236;DHT22;7202;50.718;7.072;2022-09-17T10:20:14;14.70;99.90
14236;DHT22;7202;50.718;7.072;2022-09-17T10:22:49;14.70;99.90
14236;DHT22;7202;50.718;7.072;2022-09-17T10:25:25;14.70;99.90
14236;DHT22;7202;50.718;7.072;2022-09-17T10:27:55;14.80;99.90
14236;DHT22;7202;50.718;7.072;2022-09-17T10:30:24;14.80;99.90
14236;DHT22;7202;50.718;7.072;2022-09-17T10:33:18;14.80;99.90
14236;DHT22;7202;50.718;7.072;2022-09-17T10:35:57;14.90;99.90
14236;DHT22;7202;50.718;7.072;2022-09-17T10:38:28;14.90;99.90
14236;DHT22;7202;50.718;7.072;2022-09-17T10:41:15;14.90;99.90
14236;DHT22;7202;50.718;7.072;2022-09-17T10:43:44;14.90;99.90
14236;DHT22;7202;50.718;7.072;2022-09-17T10:46:15;14.90;99.90
14236;DHT22;7202;50.718;7.072;2022-09-17T10:48:56;15.00;99.90
14236;DHT22;7202;50.718;7.072;2022-09-17T10:51:26;15.10;99.90
14236;DHT22;7202;50.718;7.072;2022-09-17T10:54:05;15.10;99.90
14236;DHT22;7202;50.718;7.072;2022-09-17T10:56:39;15.10;99.90
14236;DHT22;7202;50.718;7.072;2022-09-17T10:59:35;15.10;99.90
14236;DHT22;7202;50.718;7.072;2022-09-17T11:02:25;15.00;99.90
14236;DHT22;7202;50.718;7.072;2022-09-17T11:05:06;14.90;99.90
14236;DHT22;7202;50.718;7.072;2022-09-17T11:07:42;14.80;99.90
14236;DHT22;7202;50.718;7.072;2022-09-17T11:10:15;14.80;99.90
14236;DHT22;7202;50.718;7.072;2022-09-17T11:13:06;14.80;99.90
14236;DHT22;7202;50.718;7.072;2022-09-17T11:15:47;14.80;99.90
14236;DHT22;7202;50.718;7.072;2022-09-17T11:18:40;14.90;99.90
14236;DHT22;7202;50.718;7.072;2022-09-17T11:21:27;14.90;99.90
14236;DHT22;7202;50.718;7.072;2022-09-17T11:26:55;15.00;99.90
14236;DHT22;7202;50.718;7.072;2022-09-17T11:29:39;15.10;99.90
14236;DHT22;7202;50.718;7.072;2022-09-17T11:32:25;15.10;99.90
14236;DHT22;7202;50.718;7.072;2022-09-17T11:34:59;15.20;99.90
14236;DHT22;7202;50.718;7.072;2022-09-17T11:37:34;15.30;99.90
14236;DHT22;7202;50.718;7.072;2022-09-17T11:40:11;15.30;99.90
14236;DHT22;7202;50.718;7.072;2022-09-17T11:42:46;15.40;99.90
14236;DHT22;7202;50.718;7.072;2022-09-17T11:45:18;15.50;99.90
14236;DHT22;7202;50.718;7.072;2022-09-17T11:47:52;15.60;99.90
14236;DHT22;7202;50.718;7.072;2022-09-17T11:50:26;15.70;99.90
14236;DHT22;7202;50.718;7.072;2022-09-17T11:53:06;15.70;99.90
14236;DHT22;7202;50.718;7.072;2022-09-17T11:55:41;15.80;99.90
14236;DHT22;7202;50.718;7.072;2022-09-17T11:58:14;15.80;99.90
14236;DHT22;7202;50.718;7.072;2022-09-17T12:00:50;15.80;99.90
14236;DHT22;7202;50.718;7.072;2022-09-17T12:03:25;15.80;99.90
14236;DHT22;7202;50.718;7.072;2022-09-17T12:05:59;15.70;99.90
14236;DHT22;7202;50.718;7.072;2022-09-17T12:08:36;15.70;99.90
14236;DHT22;7202;50.718;7.072;2022-09-17T12:11:10;15.60;99.90
14236;DHT22;7202;50.718;7.072;2022-09-17T12:13:43;15.50;99.90
14236;DHT22;7202;50.718;7.072;2022-09-17T12:16:15;15.40;99.90
14236;DHT22;7202;50.718;7.072;2022-09-17T12:18:55;15.30;99.90
14236;DHT22;7202;50.718;7.072;2022-09-17T12:21:28;15.10;99.90
14236;DHT22;7202;50.718;7.072;2022-09-17T12:24:06;15.00;99.90
14236;DHT22;7202;50.718;7.072;2022-09-17T12:27:01;14.90;99.90
14236;DHT22;7202;50.718;7.072;2022-09-17T12:29:57;14.70;99.90
14236;DHT22;7202;50.718;7.072;2022-09-17T12:32:50;14.60;99.90
14236;DHT22;7202;50.718;7.072;2022-09-17T12:35:30;14.70;99.90
14236;DHT22;7202;50.718;7.072;2022-09-17T12:38:46;14.70;99.90
14236;DHT22;7202;50.718;7.072;2022-09-17T12:41:20;14.70;99.90
14236;DHT22;7202;50.718;7.072;2022-09-17T12:44:03;14.70;99.90
14236;DHT22;7202;50.718;7.072;2022-09-17T12:46:50;14.70;99.90
14236;DHT22;7202;50.718;7.072;2022-09-17T12:49:54;14.70;99.90
14236;DHT22;7202;50.718;7.072;2022-09-17T12:52:31;14.70;99.90
14236;DHT22;7202;50.718;7.072;2022-09-17T12:55:24;14.50;99.90
14236;DHT22;7202;50.718;7.072;2022-09-17T12:58:06;14.20;99.90
14236;DHT22;7202;50.718;7.072;2022-09-17T13:00:40;13.90;99.90
14236;DHT22;7202;50.718;7.072;2022-09-17T13:03:17;14.00;99.90
14236;DHT22;7202;50.718;7.072;2022-09-17T13:06:09;13.90;99.90
14236;DHT22;7202;50.718;7.072;2022-09-17T13:09:08;14.00;99.90
14236;DHT22;7202;50.718;7.072;2022-09-17T13:12:06;14.20;99.90
14236;DHT22;7202;50.718;7.072;2022-09-17T13:17:42;14.40;99.90
14236;DHT22;7202;50.718;7.072;2022-09-17T13:20:39;14.50;99.90
14236;DHT22;7202;50.718;7.072;2022-09-17T13:23:10;14.60;99.90
14236;DHT22;7202;50.718;7.072;2022-09-17T13:25:49;14.70;99.90
14236;DHT22;7202;50.718;7.072;2022-09-17T13:28:19;14.70;99.90
14236;DHT22;7202;50.718;7.072;2022-09-17T13:30:56;14.80;99.90
14236;DHT22;7202;50.718;7.072;2022-09-17T13:33:50;15.00;99.90
14236;DHT22;7202;50.718;7.072;2022-09-17T13:36:35;15.00;99.90
14236;DHT22;7202;50.718;7.072;2022-09-17T13:39:07;15.10;99.90
14236;DHT22;7202;50.718;7.072;2022-09-17T13:41:38;15.00;99.90
14236;DHT22;7202;50.718;7.072;2022-09-17T13:44:08;15.00;99.90
14236;DHT22;7202;50.718;7.072;2022-09-17T13:46:40;15.10;99.90
14236;DHT22;7202;50.718;7.072;2022-09-17T13:49:13;15.20;99.90
14236;DHT22;7202;50.718;7.072;2022-09-17T13:51:52;15.30;99.90
14236;DHT22;7202;50.718;7.072;2022-09-17T13:54:22;15.50;99.90
14236;DHT22;7202;50.718;7.072;2022-09-17T13:57:09;15.70;99.90
14236;DHT22;7202;50.718;7.072;2022-09-17T13:59:54;15.80;99.90
14236;DHT22;7202;50.718;7.072;2022-09-17T14:02:30;15.80;99.90
14236;DHT22;7202;50.718;7.072;2022-09-17T14:05:24;15.80;99.90
14236;DHT22;7202;50.718;7.072;2022-09-17T14:10:58;15.60;99.90
14236;DHT22;7202;50.718;7.072;2022-09-17T14:13:39;15.40;99.90
14236;DHT22;7202;50.718;7.072;2022-09-17T14:16:33;15.20;99.90
14236;DHT22;7202;50.718;7.072;2022-09-17T14:19:22;15.10;99.90
14236;DHT22;7202;50.718;7.072;2022-09-17T14:21:59;15.00;99.90
14236;DHT22;7202;50.718;7.072;2022-09-17T14:24:34;14.80;99.90
14236;DHT22;7202;50.718;7.072;2022-09-17T14:27:13;14.80;99.90
14236;DHT22;7202;50.718;7.072;2022-09-17T14:30:09;14.80;99.90
14236;DHT22;7202;50.718;7.072;2022-09-17T14:32:43;14.80;99.90
14236;DHT22;7202;50.718;7.072;2022-09-17T14:35:21;14.80;99.90
14236;DHT22;7202;50.718;7.072;2022-09-17T14:37:53;15.00;99.90
14236;DHT22;7202;50.718;7.072;2022-09-17T14:40:23;15.10;99.90
14236;DHT22;7202;50.718;7.072;2022-09-17T14:42:54;15.20;99.90
14236;DHT22;7202;50.718;7.072;2022-09-17T14:45:27;15.30;99.90
14236;DHT22;7202;50.718;7.072;2022-09-17T14:48:25;15.40;99.90
14236;DHT22;7202;50.718;7.072;2022-09-17T14:51:24;15.50;99.90
14236;DHT22;7202;50.718;7.072;2022-09-17T14:54:13;15.60;99.90
14236;DHT22;7202;50.718;7.072;2022-09-17T14:56:54;15.70;99.90
14236;DHT22;7202;50.718;7.072;2022-09-17T14:59:44;15.80;99.90
14236;DHT22;7202;50.718;7.072;2022-09-17T15:02:33;15.90;99.90
14236;DHT22;7202;50.718;7.072;2022-09-17T15:05:25;15.90;99.90
14236;DHT22;7202;50.718;7.072;2022-09-17T15:08:07;16.00;99.90
14236;DHT22;7202;50.718;7.072;2022-09-17T15:10:46;16.00;99.90
14236;DHT22;7202;50.718;7.072;2022-09-17T15:13:17;15.90;99.90
14236;DHT22;7202;50.718;7.072;2022-09-17T15:15:55;15.70;99.90
14236;DHT22;7202;50.718;7.072;2022-09-17T15:18:35;15.40;99.90
14236;DHT22;7202;50.718;7.072;2022-09-17T15:21:10;15.20;99.90
14236;DHT22;7202;50.718;7.072;2022-09-17T15:23:43;15.00;99.90
14236;DHT22;7202;50.718;7.072;2022-09-17T15:26:15;14.80;99.90
14236;DHT22;7202;50.718;7.072;2022-09-17T15:28:45;14.80;99.90
14236;DHT22;7202;50.718;7.072;2022-09-17T15:31:16;14.60;99.90
14236;DHT22;7202;50.718;7.072;2022-09-17T15:33:46;14.50;99.90
14236;DHT22;7202;50.718;7.072;2022-09-17T15:36:20;14.40;99.90
14236;DHT22;7202;50.718;7.072;2022-09-17T15:38:50;14.30;99.90
14236;DHT22;7202;50.718;7.072;2022-09-17T15:41:30;14.20;99.90
14236;DHT22;7202;50.718;7.072;2022-09-17T15:44:21;14.10;99.90
14236;DHT22;7202;50.718;7.072;2022-09-17T15:50:12;14.00;99.90
14236;DHT22;7202;50.718;7.072;2022-09-17T15:52:42;13.70;99.90
14236;DHT22;7202;50.718;7.072;2022-09-17T15:55:31;13.30;99.90
14236;DHT22;7202;50.718;7.072;2022-09-17T15:58:02;13.10;99.90
14236;DHT22;7202;50.718;7.072;2022-09-17T16:00:31;12.90;99.90
14236;DHT22;7202;50.718;7.072;2022-09-17T16:06:36;12.60;99.90
14236;DHT22;7202;50.718;7.072;2022-09-17T16:09:39;12.40;99.90
14236;DHT22;7202;50.718;7.072;2022-09-17T16:12:11;12.30;99.90
14236;DHT22;7202;50.718;7.072;2022-09-17T16:14:44;12.20;99.90
14236;DHT22;7202;50.718;7.072;2022-09-17T16:17:40;12.10;99.90
14236;DHT22;7202;50.718;7.072;2022-09-17T16:20:14;12.10;99.90
14236;DHT22;7202;50.718;7.072;2022-09-17T16:22:44;12.00;99.90
14236;DHT22;7202;50.718;7.072;2022-09-17T16:25:16;12.00;99.90
14236;DHT22;7202;50.718;7.072;2022-09-17T16:27:48;12.00;99.90
14236;DHT22;7202;50.718;7.072;2022-09-17T16:30:20;11.90;99.90
14236;DHT22;7202;50.718;7.072;2022-09-17T16:32:49;11.90;99.90
14236;DHT22;7202;50.718;7.072;2022-09-17T16:35:21;11.90;99.90
14236;DHT22;7202;50.718;7.072;2022-09-17T16:37:51;11.90;99.90
14236;DHT22;7202;50.718;7.072;2022-09-17T16:40:23;11.90;99.90
14236;DHT22;7202;50.718;7.072;2022-09-17T16:42:54;11.80;99.90
14236;DHT22;7202;50.718;7.072;2022-09-17T16:45:23;11.80;99.90
14236;DHT22;7202;50.718;7.072;2022-09-17T16:47:55;11.80;99.90
14236;DHT22;7202;50.718;7.072;2022-09-17T16:50:24;11.80;99.90
14236;DHT22;7202;50.718;7.072;2022-09-17T16:52:53;11.80;99.90
14236;DHT22;7202;50.718;7.072;2022-09-17T16:55:23;11.80;99.90
14236;DHT22;7202;50.718;7.072;2022-09-17T16:57:52;11.80;99.90